sensor_id;sensor_type;location;lat;lon;timestamp;pressure;altitude;pressure_sealevel;temperature;humidity
7918;BME280;4004;42.624;23.386;2022-09-06T00:01:09;94846.31;;;14.14;100.00
7918;BME280;4004;42.624;23.386;2022-09-06T00:03:36;94840.34;;;14.04;100.00
7918;BME280;4004;42.624;23.386;2022-09-06T00:06:08;94845.22;;;14.18;100.00
7918;BME280;4004;42.624;23.386;2022-09-06T00:08:35;94844.09;;;14.19;100.00
7918;BME280;4004;42.624;23.386;2022-09-06T00:11:04;94849.16;;;14.21;100.00
7918;BME280;4004;42.624;23.386;2022-09-06T00:13:31;94851.19;;;14.27;100.00
7918;BME280;4004;42.624;23.386;2022-09-06T00:16:04;94852.28;;;14.23;100.00
7918;BME280;4004;42.624;23.386;2022-09-06T00:18:31;94839.59;;;14.27;100.00
7918;BME280;4004;42.624;23.386;2022-09-06T00:20:58;94837.03;;;14.34;100.00
7918;BME280;4004;42.624;23.386;2022-09-06T00:23:24;94838.91;;;14.34;100.00
7918;BME280;4004;42.624;23.386;2022-09-06T00:25:51;94842.03;;;14.36;100.00
7918;BME280;4004;42.624;23.386;2022-09-06T00:28:19;94828.91;;;14.34;100.00
7918;BME280;4004;42.624;23.386;2022-09-06T00:30:46;94833.63;;;14.18;100.00
7918;BME280;4004;42.624;23.386;2022-09-06T00:33:13;94829.66;;;14.12;100.00
7918;BME280;4004;42.624;23.386;2022-09-06T00:35:40;94830.94;;;14.18;100.00
7918;BME280;4004;42.624;23.386;2022-09-06T00:38:08;94833.63;;;14.18;100.00
7918;BME280;4004;42.624;23.386;2022-09-06T00:40:35;94828.88;;;14.11;100.00
7918;BME280;4004;42.624;23.386;2022-09-06T00:43:02;94830.09;;;14.14;100.00
7918;BME280;4004;42.624;23.386;2022-09-06T00:45:30;94828.88;;;14.11;100.00
7918;BME280;4004;42.624;23.386;2022-09-06T00:47:58;94832.31;;;14.08;100.00
7918;BME280;4004;42.624;23.386;2022-09-06T00:50:27;94830.38;;;14.08;100.00
7918;BME280;4004;42.624;23.386;2022-09-06T00:52:55;94824.88;;;14.01;100.00
7918;BME280;4004;42.624;23.386;2022-09-06T00:55:21;94824.75;;;13.94;100.00
7918;BME280;4004;42.624;23.386;2022-09-06T00:57:50;94823.59;;;13.95;100.00
7918;BME280;4004;42.624;23.386;2022-09-06T01:00:18;94824.78;;;13.98;100.00
7918;BME280;4004;42.624;23.386;2022-09-06T01:02:48;94826.50;;;14.06;100.00
7918;BME280;4004;42.624;23.386;2022-09-06T01:05:15;94824.56;;;14.06;100.00
7918;BME280;4004;42.624;23.386;2022-09-06T01:08:00;94833.09;;;14.08;100.00
7918;BME280;4004;42.624;23.386;2022-09-06T01:10:42;94834.59;;;14.06;100.00
7918;BME280;4004;42.624;23.386;2022-09-06T01:13:23;94833.69;;;13.98;100.00
7918;BME280;4004;42.624;23.386;2022-09-06T01:15:57;94830.38;;;14.08;100.00
7918;BME280;4004;42.624;23.386;2022-09-06T01:18:41;94835.69;;;14.01;100.00
7918;BME280;4004;42.624;23.386;2022-09-06T01:21:17;94834.53;;;14.02;100.00
7918;BME280;4004;42.624;23.386;2022-09-06T01:24:03;94825.88;;;13.93;100.00
7918;BME280;4004;42.624;23.386;2022-09-06T01:29:41;94825.34;;;14.07;100.00
7918;BME280;4004;42.624;23.386;2022-09-06T01:32:14;94827.63;;;14.05;100.00
7918;BME280;4004;42.624;23.386;2022-09-06T01:34:49;94821.09;;;14.06;100.00
7918;BME280;4004;42.624;23.386;2022-09-06T01:37:18;94822.63;;;14.07;100.00
7918;BME280;4004;42.624;23.386;2022-09-06T01:39:46;94821.16;;;14.09;100.00
7918;BME280;4004;42.624;23.386;2022-09-06T01:42:16;94822.16;;;14.01;100.00
7918;BME280;4004;42.624;23.386;2022-09-06T01:44:48;94817.06;;;13.96;100.00
7918;BME280;4004;42.624;23.386;2022-09-06T01:47:27;94815.38;;;13.88;100.00
7918;BME280;4004;42.624;23.386;2022-09-06T01:50:30;94803.84;;;13.72;100.00
7918;BME280;4004;42.624;23.386;2022-09-06T01:53:10;94796.47;;;13.68;100.00
7918;BME280;4004;42.624;23.386;2022-09-06T01:55:45;94796.41;;;13.65;100.00
7918;BME280;4004;42.624;23.386;2022-09-06T01:58:26;94794.78;;;13.60;100.00
7918;BME280;4004;42.624;23.386;2022-09-06T02:01:00;94797.28;;;13.50;100.00
7918;BME280;4004;42.624;23.386;2022-09-06T02:03:34;94797.75;;;13.55;100.00
7918;BME280;4004;42.624;23.386;2022-09-06T02:06:06;94797.03;;;13.58;100.00
7918;BME280;4004;42.624;23.386;2022-09-06T02:08:38;94793.44;;;13.51;100.00
7918;BME280;4004;42.624;23.386;2022-09-06T02:11:07;94791.50;;;13.51;100.00
7918;BME280;4004;42.624;23.386;2022-09-06T02:13:37;94788.38;;;13.49;100.00
7918;BME280;4004;42.624;23.386;2022-09-06T02:16:07;94788.75;;;13.47;100.00
7918;BME280;4004;42.624;23.386;2022-09-06T02:18:39;94784.00;;;13.41;100.00
7918;BME280;4004;42.624;23.386;2022-09-06T02:21:09;94793.19;;;13.36;100.00
7918;BME280;4004;42.624;23.386;2022-09-06T02:23:39;94788.56;;;13.37;100.00
7918;BME280;4004;42.624;23.386;2022-09-06T02:26:11;94788.91;;;13.35;100.00
7918;BME280;4004;42.624;23.386;2022-09-06T02:28:38;94753.72;;;13.12;100.00
7918;BME280;4004;42.624;23.386;2022-09-06T02:31:11;94788.97;;;13.39;100.00
7918;BME280;4004;42.624;23.386;2022-09-06T02:33:44;94790.88;;;13.38;100.00
7918;BME280;4004;42.624;23.386;2022-09-06T02:36:12;94796.66;;;13.37;100.00
7918;BME280;4004;42.624;23.386;2022-09-06T02:38:40;94793.22;;;13.40;100.00
7918;BME280;4004;42.624;23.386;2022-09-06T02:41:09;94797.06;;;13.39;100.00
7918;BME280;4004;42.624;23.386;2022-09-06T02:43:36;94799.19;;;13.49;100.00
7918;BME280;4004;42.624;23.386;2022-09-06T02:46:02;94792.38;;;13.55;100.00
7918;BME280;4004;42.624;23.386;2022-09-06T02:48:30;94797.41;;;13.57;100.00
7918;BME280;4004;42.624;23.386;2022-09-06T02:51:01;94795.63;;;13.64;100.00
7918;BME280;4004;42.624;23.386;2022-09-06T02:53:28;94796.03;;;13.66;100.00
7918;BME280;4004;42.624;23.386;2022-09-06T02:55:55;94803.38;;;13.66;100.00
7918;BME280;4004;42.624;23.386;2022-09-06T02:58:22;94801.66;;;13.58;100.00
7918;BME280;4004;42.624;23.386;2022-09-06T03:00:50;94799.06;;;13.61;100.00
7918;BME280;4004;42.624;23.386;2022-09-06T03:03:17;94805.00;;;13.71;100.00
7918;BME280;4004;42.624;23.386;2022-09-06T03:05:47;94804.28;;;13.74;100.00
7918;BME280;4004;42.624;23.386;2022-09-06T03:08:14;94805.00;;;13.71;100.00
7918;BME280;4004;42.624;23.386;2022-09-06T03:10:41;94803.94;;;13.75;100.00
7918;BME280;4004;42.624;23.386;2022-09-06T03:13:13;94811.03;;;13.83;100.00
7918;BME280;4004;42.624;23.386;2022-09-06T03:15:40;94796.38;;;13.84;100.00
7918;BME280;4004;42.624;23.386;2022-09-06T03:18:07;94799.91;;;13.88;100.00
7918;BME280;4004;42.624;23.386;2022-09-06T03:20:33;94802.69;;;13.92;100.00
7918;BME280;4004;42.624;23.386;2022-09-06T03:23:01;94799.34;;;13.99;100.00
7918;BME280;4004;42.624;23.386;2022-09-06T03:25:28;94801.63;;;13.97;100.00
7918;BME280;4004;42.624;23.386;2022-09-06T03:27:55;94805.94;;;14.01;100.00
7918;BME280;4004;42.624;23.386;2022-09-06T03:30:22;94804.00;;;14.02;100.00
7918;BME280;4004;42.624;23.386;2022-09-06T03:32:49;94803.53;;;13.96;100.00
7918;BME280;4004;42.624;23.386;2022-09-06T03:35:15;94805.22;;;14.04;100.00
7918;BME280;4004;42.624;23.386;2022-09-06T03:37:42;94817.19;;;14.03;100.00
7918;BME280;4004;42.624;23.386;2022-09-06T03:40:11;94821.16;;;14.09;100.00
7918;BME280;4004;42.624;23.386;2022-09-06T03:42:38;94814.25;;;14.12;100.00
7918;BME280;4004;42.624;23.386;2022-09-06T03:45:05;94823.91;;;14.13;100.00
7918;BME280;4004;42.624;23.386;2022-09-06T03:47:32;94822.78;;;14.14;100.00
7918;BME280;4004;42.624;23.386;2022-09-06T03:49:59;94822.88;;;14.21;100.00
7918;BME280;4004;42.624;23.386;2022-09-06T03:52:25;94823.84;;;14.33;100.00
7918;BME280;4004;42.624;23.386;2022-09-06T03:54:52;94828.84;;;14.30;100.00
7918;BME280;4004;42.624;23.386;2022-09-06T03:57:20;94822.22;;;14.28;100.00
7918;BME280;4004;42.624;23.386;2022-09-06T03:59:47;94825.78;;;14.32;100.00
7918;BME280;4004;42.624;23.386;2022-09-06T04:02:14;94821.56;;;14.35;100.00
7918;BME280;4004;42.624;23.386;2022-09-06T04:04:40;94828.59;;;14.39;100.00
7918;BME280;4004;42.624;23.386;2022-09-06T04:07:07;94836.41;;;14.44;100.00
7918;BME280;4004;42.624;23.386;2022-09-06T04:09:34;94828.91;;;14.57;100.00
7918;BME280;4004;42.624;23.386;2022-09-06T04:12:02;94834.94;;;14.74;100.00
7918;BME280;4004;42.624;23.386;2022-09-06T04:14:30;94840.34;;;15.00;100.00
7918;BME280;4004;42.624;23.386;2022-09-06T04:16:56;94829.97;;;15.32;100.00
7918;BME280;4004;42.624;23.386;2022-09-06T04:19:23;94838.44;;;15.61;100.00
7918;BME280;4004;42.624;23.386;2022-09-06T04:21:50;94840.16;;;16.10;100.00
7918;BME280;4004;42.624;23.386;2022-09-06T04:24:16;94832.00;;;16.55;100.00
7918;BME280;4004;42.624;23.386;2022-09-06T04:26:43;94839.75;;;17.05;99.33
7918;BME280;4004;42.624;23.386;2022-09-06T04:29:10;94839.22;;;17.51;94.18
7918;BME280;4004;42.624;23.386;2022-09-06T04:31:38;94852.69;;;18.10;91.55
7918;BME280;4004;42.624;23.386;2022-09-06T04:34:05;94850.41;;;18.73;87.73
7918;BME280;4004;42.624;23.386;2022-09-06T04:36:31;94853.84;;;19.41;82.83
7918;BME280;4004;42.624;23.386;2022-09-06T04:38:58;94859.22;;;19.70;78.18
7918;BME280;4004;42.624;23.386;2022-09-06T04:41:25;94855.63;;;20.54;74.33
7918;BME280;4004;42.624;23.386;2022-09-06T04:43:52;94858.88;;;21.32;66.23
7918;BME280;4004;42.624;23.386;2022-09-06T04:46:20;94854.53;;;21.76;62.39
7918;BME280;4004;42.624;23.386;2022-09-06T04:48:51;94852.16;;;22.40;59.69
7918;BME280;4004;42.624;23.386;2022-09-06T04:51:19;94851.19;;;23.04;57.00
7918;BME280;4004;42.624;23.386;2022-09-06T04:53:46;94850.00;;;23.69;53.08
7918;BME280;4004;42.624;23.386;2022-09-06T04:56:16;94848.75;;;24.30;50.73
7918;BME280;4004;42.624;23.386;2022-09-06T04:58:44;94851.09;;;24.84;49.27
7918;BME280;4004;42.624;23.386;2022-09-06T05:01:11;94846.31;;;25.34;47.62
7918;BME280;4004;42.624;23.386;2022-09-06T05:03:38;94834.22;;;25.60;46.25
7918;BME280;4004;42.624;23.386;2022-09-06T05:06:08;94839.28;;;25.91;44.90
7918;BME280;4004;42.624;23.386;2022-09-06T05:08:37;94840.81;;;25.63;44.86
7918;BME280;4004;42.624;23.386;2022-09-06T05:11:04;94844.28;;;25.21;45.96
7918;BME280;4004;42.624;23.386;2022-09-06T05:13:31;94851.78;;;24.88;47.57
7918;BME280;4004;42.624;23.386;2022-09-06T05:15:59;94849.25;;;24.25;49.19
7918;BME280;4004;42.624;23.386;2022-09-06T05:18:26;94840.00;;;23.98;49.77
7918;BME280;4004;42.624;23.386;2022-09-06T05:20:53;94843.25;;;23.73;50.60
7918;BME280;4004;42.624;23.386;2022-09-06T05:23:22;94833.81;;;23.54;51.42
7918;BME280;4004;42.624;23.386;2022-09-06T05:25:49;94837.41;;;23.71;50.92
7918;BME280;4004;42.624;23.386;2022-09-06T05:28:16;94836.06;;;23.40;51.82
7918;BME280;4004;42.624;23.386;2022-09-06T05:30:43;94835.72;;;23.57;52.30
7918;BME280;4004;42.624;23.386;2022-09-06T05:33:10;94831.84;;;23.35;52.46
7918;BME280;4004;42.624;23.386;2022-09-06T05:35:37;94825.16;;;22.89;54.05
7918;BME280;4004;42.624;23.386;2022-09-06T05:38:04;94833.97;;;22.76;55.29
7918;BME280;4004;42.624;23.386;2022-09-06T05:40:32;94828.38;;;22.33;56.53
7918;BME280;4004;42.624;23.386;2022-09-06T05:42:59;94834.28;;;22.31;57.98
7918;BME280;4004;42.624;23.386;2022-09-06T05:45:26;94835.41;;;22.61;57.02
7918;BME280;4004;42.624;23.386;2022-09-06T05:47:52;94841.41;;;22.76;55.94
7918;BME280;4004;42.624;23.386;2022-09-06T05:50:19;94840.75;;;23.19;54.45
7918;BME280;4004;42.624;23.386;2022-09-06T05:52:46;94842.06;;;23.54;52.87
7918;BME280;4004;42.624;23.386;2022-09-06T05:55:13;94838.97;;;23.72;52.29
7918;BME280;4004;42.624;23.386;2022-09-06T05:57:41;94838.53;;;23.94;51.72
7918;BME280;4004;42.624;23.386;2022-09-06T06:00:09;94839.06;;;24.05;49.93
7918;BME280;4004;42.624;23.386;2022-09-06T06:02:36;94837.22;;;23.82;50.46
7918;BME280;4004;42.624;23.386;2022-09-06T06:05:04;94841.00;;;23.48;51.10
7918;BME280;4004;42.624;23.386;2022-09-06T06:07:31;94821.69;;;22.85;53.14
7918;BME280;4004;42.624;23.386;2022-09-06T06:09:58;94825.81;;;22.96;53.48
7918;BME280;4004;42.624;23.386;2022-09-06T06:12:24;94822.72;;;23.18;53.86
7918;BME280;4004;42.624;23.386;2022-09-06T06:14:53;94819.75;;;23.52;52.66
7918;BME280;4004;42.624;23.386;2022-09-06T06:17:20;94828.34;;;23.54;51.84
7918;BME280;4004;42.624;23.386;2022-09-06T06:19:46;94821.81;;;23.25;51.85
7918;BME280;4004;42.624;23.386;2022-09-06T06:22:13;94813.00;;;22.90;52.92
7918;BME280;4004;42.624;23.386;2022-09-06T06:24:40;94817.53;;;22.53;54.67
7918;BME280;4004;42.624;23.386;2022-09-06T06:27:07;94815.31;;;22.44;56.08
7918;BME280;4004;42.624;23.386;2022-09-06T06:29:33;94816.19;;;22.38;55.32
7918;BME280;4004;42.624;23.386;2022-09-06T06:32:02;94812.47;;;22.24;56.27
7918;BME280;4004;42.624;23.386;2022-09-06T06:34:28;94815.09;;;22.31;56.09
7918;BME280;4004;42.624;23.386;2022-09-06T06:36:55;94821.06;;;22.50;55.62
7918;BME280;4004;42.624;23.386;2022-09-06T06:39:22;94814.63;;;22.37;56.00
7918;BME280;4004;42.624;23.386;2022-09-06T06:41:49;94810.81;;;22.30;55.64
7918;BME280;4004;42.624;23.386;2022-09-06T06:44:15;94802.84;;;22.12;55.60
7918;BME280;4004;42.624;23.386;2022-09-06T06:46:42;94812.28;;;22.08;55.30
7918;BME280;4004;42.624;23.386;2022-09-06T06:49:10;94819.66;;;22.11;54.90
7918;BME280;4004;42.624;23.386;2022-09-06T06:51:37;94816.31;;;22.54;54.92
7918;BME280;4004;42.624;23.386;2022-09-06T06:54:04;94814.44;;;22.74;54.38
7918;BME280;4004;42.624;23.386;2022-09-06T06:56:33;94818.84;;;23.15;52.59
7918;BME280;4004;42.624;23.386;2022-09-06T06:59:01;94817.66;;;23.36;51.76
7918;BME280;4004;42.624;23.386;2022-09-06T07:01:31;94823.09;;;23.40;51.79
7918;BME280;4004;42.624;23.386;2022-09-06T07:03:58;94825.59;;;23.54;51.24
7918;BME280;4004;42.624;23.386;2022-09-06T07:06:27;94825.22;;;23.72;51.53
7918;BME280;4004;42.624;23.386;2022-09-06T07:08:55;94820.59;;;23.89;51.21
7918;BME280;4004;42.624;23.386;2022-09-06T07:11:22;94825.72;;;23.87;51.27
7918;BME280;4004;42.624;23.386;2022-09-06T07:13:49;94827.84;;;23.59;51.54
7918;BME280;4004;42.624;23.386;2022-09-06T07:16:18;94835.41;;;23.72;51.49
7918;BME280;4004;42.624;23.386;2022-09-06T07:18:45;94832.09;;;24.20;50.40
7918;BME280;4004;42.624;23.386;2022-09-06T07:21:14;94830.66;;;24.32;49.45
7918;BME280;4004;42.624;23.386;2022-09-06T07:23:42;94831.91;;;24.28;49.34
7918;BME280;4004;42.624;23.386;2022-09-06T07:26:13;94840.06;;;24.15;49.22
7918;BME280;4004;42.624;23.386;2022-09-06T07:28:40;94841.72;;;23.92;50.22
7918;BME280;4004;42.624;23.386;2022-09-06T07:31:07;94838.91;;;23.76;50.88
7918;BME280;4004;42.624;23.386;2022-09-06T07:33:34;94845.16;;;23.76;50.34
7918;BME280;4004;42.624;23.386;2022-09-06T07:36:03;94840.56;;;24.10;50.08
7918;BME280;4004;42.624;23.386;2022-09-06T07:38:30;94841.09;;;24.57;49.30
7918;BME280;4004;42.624;23.386;2022-09-06T07:40:59;94831.97;;;25.10;48.09
7918;BME280;4004;42.624;23.386;2022-09-06T07:43:27;94832.66;;;25.30;47.69
7918;BME280;4004;42.624;23.386;2022-09-06T07:45:58;94833.38;;;25.47;47.11
7918;BME280;4004;42.624;23.386;2022-09-06T07:48:27;94836.41;;;25.65;46.74
7918;BME280;4004;42.624;23.386;2022-09-06T07:50:54;94839.34;;;25.75;45.93
7918;BME280;4004;42.624;23.386;2022-09-06T07:53:21;94847.47;;;26.08;45.55
7918;BME280;4004;42.624;23.386;2022-09-06T07:55:48;94832.59;;;25.76;46.33
7918;BME280;4004;42.624;23.386;2022-09-06T07:58:16;94834.06;;;25.51;46.38
7918;BME280;4004;42.624;23.386;2022-09-06T08:00:42;94832.63;;;24.68;47.93
7918;BME280;4004;42.624;23.386;2022-09-06T08:03:10;94833.94;;;24.44;48.35
7918;BME280;4004;42.624;23.386;2022-09-06T08:05:37;94830.34;;;24.63;48.56
7918;BME280;4004;42.624;23.386;2022-09-06T08:08:03;94838.97;;;24.81;48.28
7918;BME280;4004;42.624;23.386;2022-09-06T08:10:30;94833.09;;;24.96;46.88
7918;BME280;4004;42.624;23.386;2022-09-06T08:12:57;94824.97;;;24.92;46.43
7918;BME280;4004;42.624;23.386;2022-09-06T08:15:25;94821.00;;;24.60;46.54
7918;BME280;4004;42.624;23.386;2022-09-06T08:17:54;94831.47;;;24.49;47.20
7918;BME280;4004;42.624;23.386;2022-09-06T08:20:21;94824.47;;;24.28;48.19
7918;BME280;4004;42.624;23.386;2022-09-06T08:22:47;94816.75;;;24.39;48.29
7918;BME280;4004;42.624;23.386;2022-09-06T08:25:14;94822.28;;;24.56;48.14
7918;BME280;4004;42.624;23.386;2022-09-06T08:27:41;94825.72;;;24.76;48.20
7918;BME280;4004;42.624;23.386;2022-09-06T08:30:09;94818.94;;;24.97;47.82
7918;BME280;4004;42.624;23.386;2022-09-06T08:32:37;94813.59;;;25.07;47.42
7918;BME280;4004;42.624;23.386;2022-09-06T08:35:06;94817.44;;;25.09;47.69
7918;BME280;4004;42.624;23.386;2022-09-06T08:37:32;94812.81;;;24.90;48.20
7918;BME280;4004;42.624;23.386;2022-09-06T08:39:59;94815.19;;;24.38;49.02
7918;BME280;4004;42.624;23.386;2022-09-06T08:42:26;94807.59;;;24.10;50.03
7918;BME280;4004;42.624;23.386;2022-09-06T08:44:53;94803.72;;;24.07;50.21
7918;BME280;4004;42.624;23.386;2022-09-06T08:47:22;94797.13;;;24.21;50.00
7918;BME280;4004;42.624;23.386;2022-09-06T08:49:53;94801.56;;;23.98;50.46
7918;BME280;4004;42.624;23.386;2022-09-06T08:52:35;94795.22;;;24.02;50.33
7918;BME280;4004;42.624;23.386;2022-09-06T08:55:19;94786.31;;;24.14;49.58
7918;BME280;4004;42.624;23.386;2022-09-06T08:58:00;94788.94;;;24.01;49.50
7918;BME280;4004;42.624;23.386;2022-09-06T09:00:32;94788.13;;;23.84;49.44
7918;BME280;4004;42.624;23.386;2022-09-06T09:03:05;94786.94;;;23.85;49.49
7918;BME280;4004;42.624;23.386;2022-09-06T09:05:36;94785.31;;;23.88;49.56
7918;BME280;4004;42.624;23.386;2022-09-06T09:08:12;94777.56;;;23.83;50.51
7918;BME280;4004;42.624;23.386;2022-09-06T09:10:46;94774.97;;;23.75;50.25
7918;BME280;4004;42.624;23.386;2022-09-06T09:13:23;94764.47;;;23.70;49.20
7918;BME280;4004;42.624;23.386;2022-09-06T09:15:51;94761.25;;;23.75;48.29
7918;BME280;4004;42.624;23.386;2022-09-06T09:18:22;94758.78;;;23.81;48.96
7918;BME280;4004;42.624;23.386;2022-09-06T09:20:52;94760.13;;;23.73;49.32
7918;BME280;4004;42.624;23.386;2022-09-06T09:23:18;94750.97;;;23.79;49.80
7918;BME280;4004;42.624;23.386;2022-09-06T09:25:46;94752.59;;;23.77;48.65
7918;BME280;4004;42.624;23.386;2022-09-06T09:28:16;94755.69;;;23.79;47.00
7918;BME280;4004;42.624;23.386;2022-09-06T09:30:47;94749.53;;;23.71;48.03
7918;BME280;4004;42.624;23.386;2022-09-06T09:33:23;94744.72;;;23.79;47.68
7918;BME280;4004;42.624;23.386;2022-09-06T09:35:51;94739.47;;;23.85;47.60
7918;BME280;4004;42.624;23.386;2022-09-06T09:38:21;94735.44;;;23.89;47.81
7918;BME280;4004;42.624;23.386;2022-09-06T09:40:50;94728.50;;;24.01;48.14
7918;BME280;4004;42.624;23.386;2022-09-06T09:43:20;94730.31;;;24.08;48.51
7918;BME280;4004;42.624;23.386;2022-09-06T09:46:07;94718.75;;;24.16;47.73
7918;BME280;4004;42.624;23.386;2022-09-06T09:48:35;94728.13;;;24.19;46.90
7918;BME280;4004;42.624;23.386;2022-09-06T09:51:18;94721.69;;;24.26;47.12
7918;BME280;4004;42.624;23.386;2022-09-06T09:53:49;94732.75;;;24.22;46.23
7918;BME280;4004;42.624;23.386;2022-09-06T09:56:18;94733.25;;;24.00;43.53
7918;BME280;4004;42.624;23.386;2022-09-06T09:58:48;94732.88;;;23.82;43.77
7918;BME280;4004;42.624;23.386;2022-09-06T10:01:21;94713.16;;;23.67;44.73
7918;BME280;4004;42.624;23.386;2022-09-06T10:03:51;94718.59;;;23.71;47.46
7918;BME280;4004;42.624;23.386;2022-09-06T10:06:27;94710.91;;;23.62;46.77
7918;BME280;4004;42.624;23.386;2022-09-06T10:08:54;94714.38;;;23.66;47.09
7918;BME280;4004;42.624;23.386;2022-09-06T10:11:37;94708.69;;;23.77;46.42
7918;BME280;4004;42.624;23.386;2022-09-06T10:14:10;94701.00;;;23.68;45.28
7918;BME280;4004;42.624;23.386;2022-09-06T10:16:41;94707.75;;;23.64;45.21
7918;BME280;4004;42.624;23.386;2022-09-06T10:19:32;94700.19;;;23.68;45.69
7918;BME280;4004;42.624;23.386;2022-09-06T10:22:15;94695.06;;;23.70;45.25
7918;BME280;4004;42.624;23.386;2022-09-06T10:24:57;94698.72;;;23.83;44.77
7918;BME280;4004;42.624;23.386;2022-09-06T10:27:29;94699.59;;;23.96;44.33
7918;BME280;4004;42.624;23.386;2022-09-06T10:30:01;94696.66;;;23.87;42.78
7918;BME280;4004;42.624;23.386;2022-09-06T10:32:38;94693.31;;;23.79;43.56
7918;BME280;4004;42.624;23.386;2022-09-06T10:35:15;94696.97;;;23.73;42.60
7918;BME280;4004;42.624;23.386;2022-09-06T10:38:05;94690.78;;;23.69;43.06
7918;BME280;4004;42.624;23.386;2022-09-06T10:40:44;94686.91;;;23.66;41.74
7918;BME280;4004;42.624;23.386;2022-09-06T10:43:18;94678.69;;;23.66;42.77
7918;BME280;4004;42.624;23.386;2022-09-06T10:45:53;94686.44;;;23.51;41.26
7918;BME280;4004;42.624;23.386;2022-09-06T10:48:25;94685.25;;;23.52;39.99
7918;BME280;4004;42.624;23.386;2022-09-06T10:50:56;94695.97;;;23.47;42.66
7918;BME280;4004;42.624;23.386;2022-09-06T10:53:36;94677.88;;;23.49;40.36
7918;BME280;4004;42.624;23.386;2022-09-06T10:56:07;94684.56;;;23.48;39.56
7918;BME280;4004;42.624;23.386;2022-09-06T10:58:44;94674.19;;;23.56;38.46
7918;BME280;4004;42.624;23.386;2022-09-06T11:01:24;94682.78;;;23.58;39.74
7918;BME280;4004;42.624;23.386;2022-09-06T11:03:54;94668.69;;;23.76;39.18
7918;BME280;4004;42.624;23.386;2022-09-06T11:06:28;94667.94;;;23.72;38.79
7918;BME280;4004;42.624;23.386;2022-09-06T11:09:02;94665.41;;;23.81;38.22
7918;BME280;4004;42.624;23.386;2022-09-06T11:11:39;94667.91;;;23.92;38.31
7918;BME280;4004;42.624;23.386;2022-09-06T11:14:10;94664.22;;;23.98;38.90
7918;BME280;4004;42.624;23.386;2022-09-06T11:16:43;94653.50;;;24.20;39.21
7918;BME280;4004;42.624;23.386;2022-09-06T11:19:15;94661.13;;;24.29;39.64
7918;BME280;4004;42.624;23.386;2022-09-06T11:22:09;94668.59;;;24.45;38.47
7918;BME280;4004;42.624;23.386;2022-09-06T11:24:55;94666.63;;;24.29;38.39
7918;BME280;4004;42.624;23.386;2022-09-06T11:27:32;94670.09;;;24.17;38.78
7918;BME280;4004;42.624;23.386;2022-09-06T11:30:02;94661.06;;;24.16;37.85
7918;BME280;4004;42.624;23.386;2022-09-06T11:32:34;94650.50;;;24.15;37.23
7918;BME280;4004;42.624;23.386;2022-09-06T11:35:05;94646.47;;;24.19;36.30
7918;BME280;4004;42.624;23.386;2022-09-06T11:37:36;94657.53;;;24.16;37.18
7918;BME280;4004;42.624;23.386;2022-09-06T11:40:14;94652.38;;;24.18;37.68
7918;BME280;4004;42.624;23.386;2022-09-06T11:43:09;94644.75;;;24.26;36.96
7918;BME280;4004;42.624;23.386;2022-09-06T11:45:47;94648.91;;;24.47;37.13
7918;BME280;4004;42.624;23.386;2022-09-06T11:48:48;94639.28;;;24.71;36.94
7918;BME280;4004;42.624;23.386;2022-09-06T11:51:32;94631.50;;;24.82;36.96
7918;BME280;4004;42.624;23.386;2022-09-06T11:54:18;94634.63;;;24.97;37.95
7918;BME280;4004;42.624;23.386;2022-09-06T11:56:54;94632.00;;;25.07;38.70
7918;BME280;4004;42.624;23.386;2022-09-06T11:59:31;94623.50;;;25.30;38.30
7918;BME280;4004;42.624;23.386;2022-09-06T12:02:01;94627.38;;;25.33;36.96
7918;BME280;4004;42.624;23.386;2022-09-06T12:07:35;94610.84;;;25.46;37.54
7918;BME280;4004;42.624;23.386;2022-09-06T12:10:45;94617.34;;;25.52;37.27
7918;BME280;4004;42.624;23.386;2022-09-06T12:13:48;94619.88;;;25.33;37.28
7918;BME280;4004;42.624;23.386;2022-09-06T12:16:17;94612.69;;;25.23;36.08
7918;BME280;4004;42.624;23.386;2022-09-06T12:18:58;94619.69;;;25.11;36.74
7918;BME280;4004;42.624;23.386;2022-09-06T12:21:40;94612.84;;;25.03;36.53
7918;BME280;4004;42.624;23.386;2022-09-06T12:24:09;94612.84;;;25.03;37.29
7918;BME280;4004;42.624;23.386;2022-09-06T12:27:09;94613.94;;;25.06;38.07
7918;BME280;4004;42.624;23.386;2022-09-06T12:29:39;94611.91;;;24.80;37.82
7918;BME280;4004;42.624;23.386;2022-09-06T12:32:18;94617.66;;;24.57;41.05
7918;BME280;4004;42.624;23.386;2022-09-06T12:34:47;94623.88;;;24.28;41.75
7918;BME280;4004;42.624;23.386;2022-09-06T12:37:14;94621.41;;;24.17;42.17
7918;BME280;4004;42.624;23.386;2022-09-06T12:39:56;94613.16;;;24.01;42.34
7918;BME280;4004;42.624;23.386;2022-09-06T12:42:23;94618.41;;;23.95;43.53
7918;BME280;4004;42.624;23.386;2022-09-06T12:44:53;94615.56;;;23.83;43.38
7918;BME280;4004;42.624;23.386;2022-09-06T12:47:24;94621.72;;;23.70;43.38
7918;BME280;4004;42.624;23.386;2022-09-06T12:50:09;94605.34;;;23.67;43.79
7918;BME280;4004;42.624;23.386;2022-09-06T12:52:50;94606.19;;;23.64;43.92
7918;BME280;4004;42.624;23.386;2022-09-06T12:55:20;94595.63;;;23.46;44.71
7918;BME280;4004;42.624;23.386;2022-09-06T12:57:50;94600.31;;;23.45;44.48
7918;BME280;4004;42.624;23.386;2022-09-06T13:00:19;94599.91;;;23.30;43.80
7918;BME280;4004;42.624;23.386;2022-09-06T13:02:53;94601.25;;;23.38;45.31
7918;BME280;4004;42.624;23.386;2022-09-06T13:05:23;94596.69;;;23.32;45.13
7918;BME280;4004;42.624;23.386;2022-09-06T13:07:52;94593.53;;;23.33;44.39
7918;BME280;4004;42.624;23.386;2022-09-06T13:10:22;94600.50;;;23.38;44.43
7918;BME280;4004;42.624;23.386;2022-09-06T13:12:51;94591.75;;;23.43;44.27
7918;BME280;4004;42.624;23.386;2022-09-06T13:15:23;94611.66;;;23.47;44.59
7918;BME280;4004;42.624;23.386;2022-09-06T13:17:51;94599.50;;;23.48;44.08
7918;BME280;4004;42.624;23.386;2022-09-06T13:20:25;94591.50;;;23.54;43.35
7918;BME280;4004;42.624;23.386;2022-09-06T13:23:03;94596.56;;;23.55;43.82
7918;BME280;4004;42.624;23.386;2022-09-06T13:25:30;94587.13;;;23.56;43.75
7918;BME280;4004;42.624;23.386;2022-09-06T13:27:57;94586.63;;;23.62;43.76
7918;BME280;4004;42.624;23.386;2022-09-06T13:30:36;94582.00;;;23.58;43.16
7918;BME280;4004;42.624;23.386;2022-09-06T13:33:07;94579.53;;;23.64;43.08